createdAt,value
2018-10-17T00:01:53.194Z,16.57
2018-10-17T00:04:28.853Z,15.73
2018-10-17T00:07:04.508Z,15.67
2018-10-17T00:09:39.755Z,15.47
2018-10-17T00:12:16.446Z,15.57
2018-10-17T00:14:53.079Z,15.03
2018-10-17T00:17:29.433Z,15.40
2018-10-17T00:20:09.890Z,15.10
2018-10-17T00:22:45.658Z,14.90
2018-10-17T00:25:21.465Z,14.93
2018-10-17T00:27:57.473Z,14.60
2018-10-17T00:30:33.396Z,15.23
2018-10-17T00:33:09.443Z,14.37
2018-10-17T00:35:47.069Z,14.97
2018-10-17T00:38:23.294Z,15.17
2018-10-17T00:40:59.479Z,16.37
2018-10-17T00:43:36.970Z,15.57
2018-10-17T00:46:12.383Z,15.73
2018-10-17T00:48:49.838Z,14.47
2018-10-17T00:51:26.339Z,15.40
2018-10-17T00:54:03.299Z,15.13
2018-10-17T00:56:39.093Z,16.30
2018-10-17T00:59:17.005Z,15.80
2018-10-17T01:01:52.767Z,15.73
2018-10-17T01:04:28.408Z,15.00
2018-10-17T01:07:08.580Z,15.73
2018-10-17T01:09:45.981Z,15.53
2018-10-17T01:12:21.792Z,15.83
2018-10-17T01:14:57.685Z,15.57
2018-10-17T01:17:32.931Z,15.73
2018-10-17T01:20:10.935Z,15.83
2018-10-17T01:22:47.461Z,16.00
2018-10-17T01:25:23.683Z,15.13
2018-10-17T01:27:59.379Z,15.17
2018-10-17T01:30:35.393Z,16.47
2018-10-17T01:35:51.343Z,16.07
2018-10-17T01:38:27.100Z,16.80
2018-10-17T01:41:04.993Z,16.37
2018-10-17T01:43:40.525Z,17.67
2018-10-17T01:46:17.523Z,16.87
2018-10-17T01:51:34.342Z,15.83
2018-10-17T01:54:10.569Z,15.90
2018-10-17T01:56:46.356Z,16.17
2018-10-17T01:59:22.520Z,16.17
2018-10-17T02:01:58.259Z,15.07
2018-10-17T02:04:33.894Z,15.40
2018-10-17T02:07:10.249Z,15.00
2018-10-17T02:09:46.354Z,16.33
2018-10-17T02:12:23.108Z,15.77
2018-10-17T02:14:59.074Z,16.07
2018-10-17T02:17:34.343Z,16.27
2018-10-17T02:20:13.609Z,15.03
2018-10-17T02:22:51.244Z,16.40
2018-10-17T02:25:28.354Z,16.83
2018-10-17T02:28:04.272Z,16.50
2018-10-17T02:30:40.413Z,16.43
2018-10-17T02:33:16.928Z,16.53
2018-10-17T02:35:52.614Z,16.17
2018-10-17T02:38:29.189Z,17.20
2018-10-17T02:41:05.807Z,16.93
2018-10-17T02:43:42.380Z,16.87
2018-10-17T02:46:18.247Z,18.47
2018-10-17T02:48:53.667Z,17.30
2018-10-17T02:51:29.649Z,17.20
2018-10-17T02:54:06.182Z,17.70
2018-10-17T02:56:41.207Z,16.40
2018-10-17T02:59:18.022Z,15.87
2018-10-17T03:01:53.444Z,16.53
2018-10-17T03:04:32.111Z,16.67
2018-10-17T03:07:09.047Z,17.60
2018-10-17T03:09:44.584Z,17.13
2018-10-17T03:12:20.988Z,16.50
2018-10-17T03:14:56.758Z,15.27
2018-10-17T03:17:34.798Z,15.90
2018-10-17T03:20:09.858Z,15.23
2018-10-17T03:22:46.766Z,15.10
2018-10-17T03:25:22.962Z,15.90
2018-10-17T03:28:00.970Z,16.83
2018-10-17T03:30:39.565Z,16.60
2018-10-17T03:33:15.933Z,15.80
2018-10-17T03:35:51.919Z,16.03
2018-10-17T03:38:28.236Z,17.27
2018-10-17T03:41:05.076Z,17.00
2018-10-17T03:43:42.821Z,17.47
2018-10-17T03:46:19.415Z,17.03
2018-10-17T03:48:55.602Z,18.13
2018-10-17T03:51:32.049Z,17.23
2018-10-17T03:54:08.705Z,17.23
2018-10-17T03:56:49.357Z,18.03
2018-10-17T03:59:25.551Z,16.97
2018-10-17T04:04:43.763Z,17.90
2018-10-17T04:07:19.941Z,17.87
2018-10-17T04:09:55.795Z,17.97
2018-10-17T04:12:32.059Z,18.03
2018-10-17T04:15:08.177Z,18.17
2018-10-17T04:17:46.491Z,17.93
2018-10-17T04:20:30.075Z,17.47
2018-10-17T04:23:07.314Z,17.73
2018-10-17T04:25:45.440Z,17.37
2018-10-17T04:28:21.228Z,17.07
2018-10-17T04:30:59.443Z,17.20
2018-10-17T04:33:40.490Z,17.20
2018-10-17T04:36:16.260Z,17.17
2018-10-17T04:38:54.244Z,17.47
2018-10-17T04:41:30.461Z,17.33
2018-10-17T04:46:53.082Z,18.47
2018-10-17T04:49:28.371Z,18.40
2018-10-17T04:52:04.561Z,18.17
2018-10-17T04:54:39.205Z,18.03
2018-10-17T04:57:17.440Z,18.87
2018-10-17T04:59:57.347Z,17.73
2018-10-17T05:02:39.503Z,18.53
2018-10-17T05:05:14.585Z,16.83
2018-10-17T05:08:00.476Z,18.33
2018-10-17T05:10:35.897Z,18.87
2018-10-17T05:13:11.195Z,18.27
2018-10-17T05:15:46.998Z,17.73
2018-10-17T05:18:24.040Z,18.57
2018-10-17T05:21:01.406Z,17.47
2018-10-17T05:23:37.014Z,18.63
2018-10-17T05:26:13.887Z,17.80
2018-10-17T05:28:49.358Z,17.57
2018-10-17T05:34:02.076Z,18.10
2018-10-17T05:36:38.148Z,17.83
2018-10-17T05:39:15.050Z,19.60
2018-10-17T05:41:51.090Z,18.50
2018-10-17T05:44:26.661Z,18.50
2018-10-17T05:47:02.270Z,19.27
2018-10-17T05:49:37.164Z,18.70
2018-10-17T05:52:13.344Z,18.20
2018-10-17T05:57:31.785Z,18.03
2018-10-17T06:00:07.873Z,17.00
2018-10-17T06:02:43.997Z,19.10
2018-10-17T06:05:19.849Z,19.07
2018-10-17T06:07:54.722Z,19.23
2018-10-17T06:10:29.922Z,19.37
2018-10-17T06:13:08.113Z,19.40
2018-10-17T06:15:43.411Z,19.43
2018-10-17T06:18:19.042Z,19.77
2018-10-17T06:20:54.558Z,19.03
2018-10-17T06:23:29.614Z,19.93
2018-10-17T06:26:04.763Z,19.83
2018-10-17T06:28:40.064Z,19.30
2018-10-17T06:31:16.549Z,19.43
2018-10-17T06:33:53.615Z,20.60
2018-10-17T06:36:28.619Z,20.33
2018-10-17T06:39:03.692Z,21.00
2018-10-17T06:41:39.997Z,22.03
2018-10-17T06:44:16.578Z,20.93
2018-10-17T06:46:51.452Z,21.07
2018-10-17T06:49:26.254Z,19.57
2018-10-17T06:52:00.689Z,24.80
2018-10-17T06:54:35.499Z,25.73
2018-10-17T06:57:09.970Z,27.80
2018-10-17T06:59:44.521Z,28.97
2018-10-17T07:02:20.398Z,24.77
2018-10-17T07:04:55.114Z,21.17
2018-10-17T07:07:30.163Z,19.47
2018-10-17T07:10:04.693Z,18.50
2018-10-17T07:12:39.909Z,17.43
2018-10-17T07:15:14.502Z,18.43
2018-10-17T07:18:17.601Z,17.60
2018-10-17T07:20:57.641Z,18.97
2018-10-17T07:23:33.463Z,19.37
2018-10-17T07:26:08.039Z,18.13
2018-10-17T07:28:42.622Z,18.50
2018-10-17T07:31:18.807Z,18.77
2018-10-17T07:33:56.030Z,19.03
2018-10-17T07:36:31.071Z,20.17
2018-10-17T07:39:10.437Z,19.10
2018-10-17T07:41:45.535Z,17.97
2018-10-17T07:44:19.982Z,19.03
2018-10-17T07:46:54.857Z,19.40
2018-10-17T07:49:29.268Z,19.53
2018-10-17T07:52:04.174Z,19.60
2018-10-17T07:54:38.755Z,17.87
2018-10-17T07:57:13.706Z,17.23
2018-10-17T07:59:48.343Z,18.97
2018-10-17T08:02:23.174Z,18.33
2018-10-17T08:04:57.977Z,17.73
2018-10-17T08:07:32.608Z,17.97
2018-10-17T08:10:08.481Z,18.87
2018-10-17T08:12:43.346Z,18.13
2018-10-17T08:15:18.362Z,15.90
2018-10-17T08:17:53.208Z,15.83
2018-10-17T08:20:27.593Z,15.80
2018-10-17T08:23:07.701Z,16.73
2018-10-17T08:28:21.860Z,17.27
2018-10-17T08:30:57.913Z,17.27
2018-10-17T08:33:34.105Z,18.67
2018-10-17T08:36:09.076Z,17.10
2018-10-17T08:38:44.075Z,18.60
2018-10-17T08:41:19.478Z,19.90
2018-10-17T08:43:54.504Z,19.70
2018-10-17T08:46:29.600Z,19.03
2018-10-17T08:49:04.505Z,17.93
2018-10-17T08:51:39.421Z,18.40
2018-10-17T08:54:15.620Z,18.10
2018-10-17T08:56:50.534Z,18.67
2018-10-17T08:59:25.133Z,17.57
2018-10-17T09:02:02.140Z,17.53
2018-10-17T09:04:44.942Z,17.60
2018-10-17T09:07:19.601Z,18.00
2018-10-17T09:09:54.251Z,17.93
2018-10-17T09:12:28.901Z,18.03
2018-10-17T09:15:05.359Z,17.33
2018-10-17T09:17:40.045Z,18.73
2018-10-17T09:20:14.901Z,18.90
2018-10-17T09:22:49.365Z,17.23
2018-10-17T09:25:25.470Z,17.43
2018-10-17T09:28:19.252Z,17.33
2018-10-17T09:31:07.914Z,16.70
2018-10-17T09:33:58.319Z,17.47
2018-10-17T09:37:00.761Z,16.83
2018-10-17T09:39:39.823Z,16.30
2018-10-17T09:42:14.641Z,16.20
2018-10-17T09:44:50.382Z,17.17
2018-10-17T09:47:25.267Z,16.43
2018-10-17T09:50:00.152Z,17.43
2018-10-17T09:52:35.183Z,17.33
2018-10-17T09:55:10.419Z,18.47
2018-10-17T09:57:45.314Z,17.43
2018-10-17T10:00:25.224Z,16.80
2018-10-17T10:03:00.360Z,17.33
2018-10-17T10:05:34.909Z,17.63
2018-10-17T10:08:10.716Z,16.77
2018-10-17T10:10:51.327Z,16.20
2018-10-17T10:13:27.105Z,14.90
2018-10-17T10:16:01.963Z,14.93
2018-10-17T10:18:36.888Z,15.43
2018-10-17T10:21:13.565Z,15.23
2018-10-17T10:23:59.408Z,14.40
2018-10-17T10:26:34.291Z,14.43
2018-10-17T10:29:10.255Z,14.03
2018-10-17T10:31:44.886Z,13.70
2018-10-17T10:34:19.761Z,13.83
2018-10-17T10:36:54.802Z,13.73
2018-10-17T10:39:30.619Z,13.77
2018-10-17T10:42:06.432Z,14.13
2018-10-17T10:44:41.148Z,14.33
2018-10-17T10:47:15.989Z,14.00
2018-10-17T10:49:50.659Z,12.93
2018-10-17T10:52:25.519Z,13.17
2018-10-17T10:55:00.318Z,12.30
2018-10-17T10:57:35.007Z,13.40
2018-10-17T11:00:10.309Z,13.20
2018-10-17T11:02:45.169Z,12.73
2018-10-17T11:05:20.315Z,12.33
2018-10-17T11:07:56.552Z,12.63
2018-10-17T11:10:39.026Z,11.83
2018-10-17T11:15:51.932Z,11.83
2018-10-17T11:18:27.175Z,11.50
2018-10-17T11:21:02.410Z,11.13
2018-10-17T11:23:37.599Z,11.20
2018-10-17T11:26:12.981Z,11.47
2018-10-17T11:28:48.598Z,10.97
2018-10-17T11:31:24.789Z,10.90
2018-10-17T11:33:59.801Z,10.27
2018-10-17T11:36:35.461Z,11.23
2018-10-17T11:39:30.723Z,10.30
2018-10-17T11:42:06.625Z,9.87
2018-10-17T11:44:42.720Z,9.97
2018-10-17T11:47:18.432Z,9.27
2018-10-17T11:49:53.281Z,8.90
2018-10-17T11:52:28.769Z,8.70
2018-10-17T11:55:07.869Z,8.23
2018-10-17T11:57:44.522Z,8.33
2018-10-17T12:00:19.629Z,7.13
2018-10-17T12:02:54.328Z,7.40
2018-10-17T12:05:29.359Z,6.57
2018-10-17T12:08:08.681Z,6.63
2018-10-17T12:10:44.024Z,6.80
2018-10-17T12:13:19.137Z,6.73
2018-10-17T12:15:53.939Z,7.17
2018-10-17T12:18:29.001Z,7.50
2018-10-17T12:21:04.049Z,7.83
2018-10-17T12:23:38.693Z,8.03
2018-10-17T12:26:13.418Z,7.57
2018-10-17T12:28:50.255Z,8.10
2018-10-17T12:31:26.027Z,7.70
2018-10-17T12:34:01.136Z,8.07
2018-10-17T12:36:40.883Z,7.63
2018-10-17T12:39:19.298Z,7.13
2018-10-17T12:41:56.894Z,5.73
2018-10-17T12:44:36.698Z,5.27
2018-10-17T12:47:11.373Z,5.57
2018-10-17T12:49:47.240Z,5.70
2018-10-17T12:52:23.491Z,5.20
2018-10-17T12:54:58.047Z,5.53
2018-10-17T12:57:33.174Z,5.37
2018-10-17T13:00:09.445Z,5.27
2018-10-17T13:02:45.063Z,5.57
2018-10-17T13:05:20.665Z,5.17
2018-10-17T13:07:55.054Z,5.10
2018-10-17T13:10:30.174Z,4.80
2018-10-17T13:15:55.816Z,5.53
2018-10-17T13:18:30.684Z,6.03
2018-10-17T13:21:05.517Z,5.83
2018-10-17T13:23:40.127Z,5.73
2018-10-17T13:26:15.320Z,5.80
2018-10-17T13:28:53.387Z,5.93
2018-10-17T13:31:29.432Z,5.43
2018-10-17T13:34:04.437Z,6.67
2018-10-17T13:36:38.964Z,6.67
2018-10-17T13:39:14.319Z,6.67
2018-10-17T13:41:49.783Z,6.40
2018-10-17T13:44:25.490Z,6.77
2018-10-17T13:47:00.881Z,6.60
2018-10-17T13:49:52.399Z,6.80
2018-10-17T13:54:30.094Z,7.23
2018-10-17T13:57:41.286Z,7.03
2018-10-17T14:00:36.313Z,6.97
2018-10-17T14:03:37.142Z,6.47
2018-10-17T14:09:42.842Z,6.47
2018-10-17T14:12:25.549Z,6.23
2018-10-17T14:15:01.233Z,5.93
2018-10-17T14:17:36.560Z,6.43
2018-10-17T14:20:11.780Z,6.20
2018-10-17T14:22:48.046Z,6.23
2018-10-17T14:25:25.030Z,5.70
2018-10-17T14:28:00.901Z,6.40
2018-10-17T14:30:38.166Z,5.93
2018-10-17T14:33:38.212Z,5.90
2018-10-17T14:36:12.989Z,6.37
2018-10-17T14:38:47.758Z,6.03
2018-10-17T14:41:23.827Z,5.93
2018-10-17T14:43:59.566Z,6.03
2018-10-17T14:46:39.635Z,6.70
2018-10-17T14:49:14.676Z,7.00
2018-10-17T14:51:49.335Z,7.97
2018-10-17T14:54:24.287Z,7.47
2018-10-17T15:00:02.550Z,7.80
2018-10-17T15:02:37.537Z,7.33
2018-10-17T15:05:12.842Z,7.77
2018-10-17T15:07:47.588Z,7.90
2018-10-17T15:10:22.420Z,7.40
2018-10-17T15:12:57.915Z,7.70
2018-10-17T15:15:37.238Z,8.07
2018-10-17T15:18:12.211Z,7.63
2018-10-17T15:24:11.051Z,7.57
2018-10-17T15:26:45.889Z,8.63
2018-10-17T15:29:20.852Z,7.93
2018-10-17T15:31:55.533Z,8.57
2018-10-17T15:34:30.224Z,7.50
2018-10-17T15:37:05.714Z,8.00
2018-10-17T15:39:40.425Z,8.30
2018-10-17T15:42:15.522Z,8.67
2018-10-17T15:44:50.373Z,8.50
2018-10-17T15:47:25.219Z,8.50
2018-10-17T15:50:00.173Z,9.00
2018-10-17T15:52:39.569Z,8.73
2018-10-17T15:55:14.780Z,10.23
2018-10-17T15:57:49.878Z,9.27
2018-10-17T16:00:26.648Z,9.60
2018-10-17T16:03:02.089Z,10.40
2018-10-17T16:05:37.190Z,10.07
2018-10-17T16:10:51.928Z,10.87
2018-10-17T16:13:27.121Z,9.77
2018-10-17T16:16:02.656Z,9.83
2018-10-17T16:18:37.682Z,10.03
2018-10-17T16:21:11.993Z,9.57
2018-10-17T16:23:47.059Z,9.37
2018-10-17T16:26:21.803Z,10.20
2018-10-17T16:28:57.138Z,9.73
2018-10-17T16:31:33.939Z,10.10
2018-10-17T16:34:14.207Z,9.43
2018-10-17T16:36:52.152Z,9.83
2018-10-17T16:39:29.509Z,10.63
2018-10-17T16:42:10.733Z,10.33
2018-10-17T16:44:45.390Z,10.50
2018-10-17T16:47:21.438Z,10.60
2018-10-17T16:50:01.782Z,11.00
2018-10-17T16:52:38.037Z,9.73
2018-10-17T16:55:14.303Z,9.83
2018-10-17T16:57:50.196Z,10.30
2018-10-17T17:00:26.004Z,10.40
2018-10-17T17:03:01.065Z,10.43
2018-10-17T17:05:44.167Z,11.03
2018-10-17T17:08:24.023Z,10.57
2018-10-17T17:11:02.364Z,10.30
2018-10-17T17:13:39.331Z,9.83
2018-10-17T17:16:16.483Z,9.87
2018-10-17T17:18:53.438Z,9.67
2018-10-17T17:21:31.857Z,9.23
2018-10-17T17:24:11.976Z,9.50
2018-10-17T17:26:50.468Z,9.53
2018-10-17T17:29:30.205Z,10.00
2018-10-17T17:32:09.803Z,9.63
2018-10-17T17:34:46.961Z,9.93
2018-10-17T17:37:24.519Z,10.03
2018-10-17T17:40:01.121Z,10.43
2018-10-17T17:42:36.256Z,10.20
2018-10-17T17:45:16.771Z,10.03
2018-10-17T17:47:51.805Z,10.87
2018-10-17T17:50:26.890Z,10.57
2018-10-17T17:53:03.408Z,10.50
2018-10-17T17:55:41.258Z,20.57
2018-10-17T17:58:17.428Z,13.90
2018-10-17T18:00:52.180Z,11.13
2018-10-17T18:03:28.025Z,10.37
2018-10-17T18:06:08.642Z,10.20
2018-10-17T18:08:49.505Z,11.03
2018-10-17T18:11:26.289Z,10.83
2018-10-17T18:14:02.671Z,11.07
2018-10-17T18:16:41.996Z,13.00
2018-10-17T18:19:18.575Z,12.67
2018-10-17T18:22:00.990Z,12.50
2018-10-17T18:24:40.553Z,12.57
2018-10-17T18:27:19.141Z,11.20
2018-10-17T18:32:49.020Z,12.23
2018-10-17T18:35:40.905Z,11.70
2018-10-17T18:38:33.016Z,11.00
2018-10-17T18:41:08.484Z,11.77
2018-10-17T18:43:50.100Z,12.27
2018-10-17T18:46:36.287Z,12.20
2018-10-17T18:49:11.275Z,12.07
2018-10-17T18:51:58.050Z,11.40
2018-10-17T18:54:43.681Z,11.27
2018-10-17T18:57:21.966Z,12.47
2018-10-17T19:00:04.114Z,11.97
2018-10-17T19:03:01.810Z,11.97
2018-10-17T19:05:49.401Z,12.77
2018-10-17T19:08:47.130Z,13.00
2018-10-17T19:11:21.617Z,12.10
2018-10-17T19:14:10.280Z,13.00
2018-10-17T19:16:46.160Z,11.70
2018-10-17T19:19:21.389Z,13.07
2018-10-17T19:21:57.967Z,13.53
2018-10-17T19:24:47.110Z,14.10
2018-10-17T19:27:23.689Z,14.70
2018-10-17T19:30:07.898Z,13.97
2018-10-17T19:32:47.344Z,13.47
2018-10-17T19:35:34.910Z,13.47
2018-10-17T19:38:16.112Z,14.10
2018-10-17T19:41:05.489Z,14.90
2018-10-17T19:44:10.467Z,14.30
2018-10-17T19:46:55.829Z,14.33
2018-10-17T19:49:45.257Z,14.00
2018-10-17T19:55:26.213Z,14.50
2018-10-17T19:58:06.320Z,14.60
2018-10-17T20:00:51.589Z,14.37
2018-10-17T20:03:27.523Z,14.20
2018-10-17T20:06:04.326Z,13.07
2018-10-17T20:08:42.429Z,13.07
2018-10-17T20:11:21.649Z,13.90
2018-10-17T20:14:06.747Z,13.47
2018-10-17T20:16:49.469Z,14.27
2018-10-17T20:19:31.683Z,14.13
2018-10-17T20:22:20.852Z,14.87
2018-10-17T20:25:07.182Z,14.57
2018-10-17T20:28:07.081Z,14.53
2018-10-17T20:30:53.047Z,14.90
2018-10-17T20:33:44.260Z,14.80
2018-10-17T20:39:02.656Z,13.70
2018-10-17T20:41:39.159Z,14.53
2018-10-17T20:44:16.710Z,14.80
2018-10-17T20:46:53.360Z,14.17
2018-10-17T20:49:30.397Z,15.23
2018-10-17T20:52:07.293Z,14.70
2018-10-17T20:54:44.712Z,13.67
2018-10-17T20:57:21.575Z,14.90
2018-10-17T21:02:37.140Z,13.80
2018-10-17T21:05:12.578Z,15.87
2018-10-17T21:07:49.272Z,14.93
2018-10-17T21:10:26.643Z,14.63
2018-10-17T21:13:03.748Z,15.37
2018-10-17T21:15:39.348Z,15.77
2018-10-17T21:18:15.732Z,14.67
2018-10-17T21:20:54.194Z,14.53
2018-10-17T21:23:33.828Z,15.13
2018-10-17T21:26:14.619Z,15.30
2018-10-17T21:28:50.454Z,15.23
2018-10-17T21:31:26.410Z,15.83
2018-10-17T21:34:04.126Z,15.47
2018-10-17T21:36:39.314Z,15.70
2018-10-17T21:39:15.444Z,15.53
2018-10-17T21:41:51.014Z,15.03
2018-10-17T21:44:26.727Z,16.40
2018-10-17T21:47:03.738Z,17.13
2018-10-17T21:49:39.682Z,16.13
2018-10-17T21:52:15.114Z,16.80
2018-10-17T21:54:50.601Z,17.00
2018-10-17T21:57:27.578Z,15.33
2018-10-17T22:00:05.135Z,15.40
2018-10-17T22:02:44.294Z,15.60
2018-10-17T22:05:20.949Z,16.63
2018-10-17T22:07:57.695Z,17.23
2018-10-17T22:10:34.281Z,15.97
2018-10-17T22:13:09.699Z,16.63
2018-10-17T22:15:45.450Z,16.50
2018-10-17T22:18:20.796Z,16.67
2018-10-17T22:20:56.663Z,17.67
2018-10-17T22:23:32.925Z,17.57
2018-10-17T22:26:09.523Z,18.13
2018-10-17T22:28:45.127Z,17.20
2018-10-17T22:31:20.395Z,16.83
2018-10-17T22:33:56.840Z,16.87
2018-10-17T22:36:33.387Z,18.00
2018-10-17T22:39:12.721Z,17.07
2018-10-17T22:44:30.467Z,17.67
2018-10-17T22:47:07.155Z,17.40
2018-10-17T22:49:43.087Z,17.77
2018-10-17T22:52:18.630Z,17.57
2018-10-17T22:54:54.422Z,18.47
2018-10-17T22:57:30.934Z,17.37
2018-10-17T23:00:08.265Z,16.77
2018-10-17T23:02:45.518Z,17.83
2018-10-17T23:05:21.485Z,18.67
2018-10-17T23:08:00.399Z,18.80
2018-10-17T23:10:36.559Z,18.70
2018-10-17T23:13:12.557Z,17.77
2018-10-17T23:15:52.425Z,17.50
2018-10-17T23:18:28.544Z,17.50
2018-10-17T23:21:05.757Z,16.03
2018-10-17T23:23:41.753Z,17.03
2018-10-17T23:26:17.837Z,16.10
2018-10-17T23:28:55.007Z,17.47
2018-10-17T23:31:30.947Z,18.67
2018-10-17T23:34:06.841Z,17.63
2018-10-17T23:36:42.699Z,18.93
2018-10-17T23:39:19.277Z,19.20
2018-10-17T23:41:55.287Z,18.47
2018-10-17T23:44:31.846Z,17.37
2018-10-17T23:47:07.722Z,16.43
2018-10-17T23:49:43.490Z,16.23
2018-10-17T23:52:18.882Z,16.97
2018-10-17T23:54:54.659Z,16.93
2018-10-17T23:57:30.547Z,17.97
